Ambler, Alaska
Current Conditions -  °F | °C
As of 12:36 AM on Monday 24 Nov 2014 (Local Time) from PAFM Reporting Station
Overcast Overcast  
Wind Chill: -25°   Ceiling: 5000
Heat Index: -18°   Visibility: 10mi
Dew Point: -21°   Wind: 7mph
Humidity: 78%   Direction: 20°NNE
Pressure: 29.8"   Gusts: NA
Location:  67.09°N, 157.85°W
Report Text: PAFM 240936Z AUTO 02006KT 10SM OVC050 M18/M21 A2980 RMK AO1
Loading
Personal Weather Stations






























Interactive Weather Map New forecast layout! Learn more

10-Day Weather Forecast

Advertisements
Track Severe Weather on mobile